sensor_id;sensor_type;location;lat;lon;timestamp;P1;durP1;ratioP1;P2;durP2;ratioP2
5612;SDS011;63463;53.586;9.928;2023-09-19T00:00:16;2.63;;;2.47;;
5612;SDS011;63463;53.586;9.928;2023-09-19T00:02:44;2.70;;;2.53;;
5612;SDS011;63463;53.586;9.928;2023-09-19T00:05:12;8.30;;;2.97;;
5612;SDS011;63463;53.586;9.928;2023-09-19T00:07:39;5.00;;;3.40;;
5612;SDS011;63463;53.586;9.928;2023-09-19T00:10:05;7.80;;;2.63;;
5612;SDS011;63463;53.586;9.928;2023-09-19T00:12:34;3.83;;;2.50;;
5612;SDS011;63463;53.586;9.928;2023-09-19T00:15:00;3.33;;;3.10;;
5612;SDS011;63463;53.586;9.928;2023-09-19T00:17:30;9.60;;;3.27;;
5612;SDS011;63463;53.586;9.928;2023-09-19T00:19:57;3.60;;;3.00;;
5612;SDS011;63463;53.586;9.928;2023-09-19T00:22:23;3.60;;;2.90;;
5612;SDS011;63463;53.586;9.928;2023-09-19T00:24:51;3.27;;;2.97;;
5612;SDS011;63463;53.586;9.928;2023-09-19T00:27:17;3.73;;;2.70;;
5612;SDS011;63463;53.586;9.928;2023-09-19T00:29:43;9.10;;;2.93;;
5612;SDS011;63463;53.586;9.928;2023-09-19T00:32:09;5.33;;;3.17;;
5612;SDS011;63463;53.586;9.928;2023-09-19T00:34:35;5.57;;;3.30;;
5612;SDS011;63463;53.586;9.928;2023-09-19T00:37:01;4.00;;;3.50;;
5612;SDS011;63463;53.586;9.928;2023-09-19T00:39:27;6.97;;;2.93;;
5612;SDS011;63463;53.586;9.928;2023-09-19T00:41:56;3.40;;;3.20;;
5612;SDS011;63463;53.586;9.928;2023-09-19T00:44:22;5.60;;;3.37;;
5612;SDS011;63463;53.586;9.928;2023-09-19T00:46:48;7.30;;;4.10;;
5612;SDS011;63463;53.586;9.928;2023-09-19T00:49:15;5.93;;;3.63;;
5612;SDS011;63463;53.586;9.928;2023-09-19T00:51:41;11.10;;;3.50;;
5612;SDS011;63463;53.586;9.928;2023-09-19T00:54:10;4.70;;;3.80;;
5612;SDS011;63463;53.586;9.928;2023-09-19T00:56:41;3.70;;;3.50;;
5612;SDS011;63463;53.586;9.928;2023-09-19T00:59:07;4.93;;;3.70;;
5612;SDS011;63463;53.586;9.928;2023-09-19T01:01:33;7.00;;;3.60;;
5612;SDS011;63463;53.586;9.928;2023-09-19T01:04:00;5.33;;;3.40;;
5612;SDS011;63463;53.586;9.928;2023-09-19T01:06:26;4.60;;;4.20;;
5612;SDS011;63463;53.586;9.928;2023-09-19T01:08:52;7.03;;;4.40;;
5612;SDS011;63463;53.586;9.928;2023-09-19T01:11:33;6.80;;;4.17;;
5612;SDS011;63463;53.586;9.928;2023-09-19T01:16:48;9.40;;;4.80;;
5612;SDS011;63463;53.586;9.928;2023-09-19T01:21:51;8.67;;;4.60;;
5612;SDS011;63463;53.586;9.928;2023-09-19T01:32:04;4.47;;;4.07;;
5612;SDS011;63463;53.586;9.928;2023-09-19T01:34:50;5.63;;;4.60;;
5612;SDS011;63463;53.586;9.928;2023-09-19T01:37:18;7.30;;;4.40;;
5612;SDS011;63463;53.586;9.928;2023-09-19T01:39:57;4.70;;;4.30;;
5612;SDS011;63463;53.586;9.928;2023-09-19T01:45:26;3.63;;;3.33;;
5612;SDS011;63463;53.586;9.928;2023-09-19T01:47:53;3.83;;;3.27;;
5612;SDS011;63463;53.586;9.928;2023-09-19T01:52:57;5.37;;;3.53;;
5612;SDS011;63463;53.586;9.928;2023-09-19T01:55:26;4.57;;;3.00;;
5612;SDS011;63463;53.586;9.928;2023-09-19T01:57:55;10.77;;;3.40;;
5612;SDS011;63463;53.586;9.928;2023-09-19T02:00:23;5.00;;;3.10;;
5612;SDS011;63463;53.586;9.928;2023-09-19T02:02:51;3.80;;;3.40;;
5612;SDS011;63463;53.586;9.928;2023-09-19T02:05:24;15.20;;;3.57;;
5612;SDS011;63463;53.586;9.928;2023-09-19T02:07:50;7.43;;;3.80;;
5612;SDS011;63463;53.586;9.928;2023-09-19T02:10:16;5.97;;;3.40;;
5612;SDS011;63463;53.586;9.928;2023-09-19T02:12:42;5.73;;;3.03;;
5612;SDS011;63463;53.586;9.928;2023-09-19T02:15:08;6.10;;;3.83;;
5612;SDS011;63463;53.586;9.928;2023-09-19T02:17:34;8.57;;;4.40;;
5612;SDS011;63463;53.586;9.928;2023-09-19T02:20:00;5.70;;;4.37;;
5612;SDS011;63463;53.586;9.928;2023-09-19T02:22:28;6.63;;;4.00;;
5612;SDS011;63463;53.586;9.928;2023-09-19T02:24:54;6.97;;;5.03;;
5612;SDS011;63463;53.586;9.928;2023-09-19T02:27:23;13.73;;;4.20;;
5612;SDS011;63463;53.586;9.928;2023-09-19T02:29:49;7.30;;;5.10;;
5612;SDS011;63463;53.586;9.928;2023-09-19T02:32:16;7.60;;;5.30;;
5612;SDS011;63463;53.586;9.928;2023-09-19T02:34:43;9.73;;;5.53;;
5612;SDS011;63463;53.586;9.928;2023-09-19T02:37:09;6.77;;;5.37;;
5612;SDS011;63463;53.586;9.928;2023-09-19T02:39:35;7.23;;;5.30;;
5612;SDS011;63463;53.586;9.928;2023-09-19T02:42:02;10.70;;;5.67;;
5612;SDS011;63463;53.586;9.928;2023-09-19T02:44:31;6.10;;;5.00;;
5612;SDS011;63463;53.586;9.928;2023-09-19T02:46:57;8.93;;;5.50;;
5612;SDS011;63463;53.586;9.928;2023-09-19T02:49:23;13.20;;;5.80;;
5612;SDS011;63463;53.586;9.928;2023-09-19T02:51:49;8.57;;;5.00;;
5612;SDS011;63463;53.586;9.928;2023-09-19T02:54:15;11.10;;;5.23;;
5612;SDS011;63463;53.586;9.928;2023-09-19T02:56:42;6.90;;;4.80;;
5612;SDS011;63463;53.586;9.928;2023-09-19T02:59:08;7.50;;;5.47;;
5612;SDS011;63463;53.586;9.928;2023-09-19T03:01:37;9.50;;;4.70;;
5612;SDS011;63463;53.586;9.928;2023-09-19T03:04:04;12.00;;;4.53;;
5612;SDS011;63463;53.586;9.928;2023-09-19T03:06:31;4.83;;;4.20;;
5612;SDS011;63463;53.586;9.928;2023-09-19T03:08:57;6.00;;;3.97;;
5612;SDS011;63463;53.586;9.928;2023-09-19T03:11:25;4.20;;;3.87;;
5612;SDS011;63463;53.586;9.928;2023-09-19T03:13:51;4.73;;;3.90;;
5612;SDS011;63463;53.586;9.928;2023-09-19T03:16:17;6.13;;;3.70;;
5612;SDS011;63463;53.586;9.928;2023-09-19T03:18:46;7.07;;;3.60;;
5612;SDS011;63463;53.586;9.928;2023-09-19T03:21:13;11.17;;;3.93;;
5612;SDS011;63463;53.586;9.928;2023-09-19T03:23:39;9.67;;;4.13;;
5612;SDS011;63463;53.586;9.928;2023-09-19T03:26:05;3.60;;;3.30;;
5612;SDS011;63463;53.586;9.928;2023-09-19T03:28:33;16.70;;;4.30;;
5612;SDS011;63463;53.586;9.928;2023-09-19T03:31:03;4.07;;;3.27;;
5612;SDS011;63463;53.586;9.928;2023-09-19T03:33:29;12.63;;;3.50;;
5612;SDS011;63463;53.586;9.928;2023-09-19T03:35:57;11.30;;;3.73;;
5612;SDS011;63463;53.586;9.928;2023-09-19T03:38:24;4.13;;;3.47;;
5612;SDS011;63463;53.586;9.928;2023-09-19T03:40:50;7.53;;;3.77;;
5612;SDS011;63463;53.586;9.928;2023-09-19T03:43:16;9.43;;;3.60;;
5612;SDS011;63463;53.586;9.928;2023-09-19T03:45:42;13.57;;;4.33;;
5612;SDS011;63463;53.586;9.928;2023-09-19T03:48:11;6.67;;;3.60;;
5612;SDS011;63463;53.586;9.928;2023-09-19T03:50:37;13.53;;;3.93;;
5612;SDS011;63463;53.586;9.928;2023-09-19T03:53:03;15.23;;;4.20;;
5612;SDS011;63463;53.586;9.928;2023-09-19T03:55:29;6.73;;;3.67;;
5612;SDS011;63463;53.586;9.928;2023-09-19T03:57:55;14.37;;;4.10;;
5612;SDS011;63463;53.586;9.928;2023-09-19T04:00:21;8.70;;;3.60;;
5612;SDS011;63463;53.586;9.928;2023-09-19T04:02:49;8.63;;;4.00;;
5612;SDS011;63463;53.586;9.928;2023-09-19T04:05:17;10.23;;;4.17;;
5612;SDS011;63463;53.586;9.928;2023-09-19T04:07:43;6.37;;;3.23;;
5612;SDS011;63463;53.586;9.928;2023-09-19T04:10:09;8.33;;;2.80;;
5612;SDS011;63463;53.586;9.928;2023-09-19T04:12:36;6.43;;;3.70;;
5612;SDS011;63463;53.586;9.928;2023-09-19T04:15:03;5.27;;;3.40;;
5612;SDS011;63463;53.586;9.928;2023-09-19T04:17:29;9.33;;;4.03;;
5612;SDS011;63463;53.586;9.928;2023-09-19T04:19:57;5.80;;;3.30;;
5612;SDS011;63463;53.586;9.928;2023-09-19T04:22:23;7.73;;;3.93;;
5612;SDS011;63463;53.586;9.928;2023-09-19T04:24:49;6.33;;;3.60;;
5612;SDS011;63463;53.586;9.928;2023-09-19T04:27:15;6.27;;;3.53;;
5612;SDS011;63463;53.586;9.928;2023-09-19T04:29:41;4.10;;;3.10;;
5612;SDS011;63463;53.586;9.928;2023-09-19T04:32:08;15.03;;;3.77;;
5612;SDS011;63463;53.586;9.928;2023-09-19T04:34:34;6.30;;;3.33;;
5612;SDS011;63463;53.586;9.928;2023-09-19T04:37:00;6.10;;;3.00;;
5612;SDS011;63463;53.586;9.928;2023-09-19T04:39:27;7.80;;;3.70;;
5612;SDS011;63463;53.586;9.928;2023-09-19T04:41:53;11.20;;;3.43;;
5612;SDS011;63463;53.586;9.928;2023-09-19T04:44:19;13.50;;;3.87;;
5612;SDS011;63463;53.586;9.928;2023-09-19T04:46:46;6.93;;;3.50;;
5612;SDS011;63463;53.586;9.928;2023-09-19T04:49:12;8.80;;;3.43;;
5612;SDS011;63463;53.586;9.928;2023-09-19T04:51:38;10.13;;;3.83;;
5612;SDS011;63463;53.586;9.928;2023-09-19T04:54:05;9.03;;;3.70;;
5612;SDS011;63463;53.586;9.928;2023-09-19T04:56:31;7.13;;;3.60;;
5612;SDS011;63463;53.586;9.928;2023-09-19T04:58:58;7.90;;;3.40;;
5612;SDS011;63463;53.586;9.928;2023-09-19T05:01:25;9.93;;;3.83;;
5612;SDS011;63463;53.586;9.928;2023-09-19T05:03:51;7.23;;;3.23;;
5612;SDS011;63463;53.586;9.928;2023-09-19T05:06:21;9.37;;;3.90;;
5612;SDS011;63463;53.586;9.928;2023-09-19T05:08:47;6.53;;;3.50;;
5612;SDS011;63463;53.586;9.928;2023-09-19T05:11:17;12.33;;;3.90;;
5612;SDS011;63463;53.586;9.928;2023-09-19T05:13:43;13.40;;;3.57;;
5612;SDS011;63463;53.586;9.928;2023-09-19T05:16:09;8.30;;;4.13;;
5612;SDS011;63463;53.586;9.928;2023-09-19T05:18:36;11.30;;;4.20;;
5612;SDS011;63463;53.586;9.928;2023-09-19T05:21:02;5.90;;;3.73;;
5612;SDS011;63463;53.586;9.928;2023-09-19T05:23:28;10.80;;;3.93;;
5612;SDS011;63463;53.586;9.928;2023-09-19T05:25:54;12.70;;;3.83;;
5612;SDS011;63463;53.586;9.928;2023-09-19T05:28:23;6.17;;;3.20;;
5612;SDS011;63463;53.586;9.928;2023-09-19T05:30:49;4.60;;;4.10;;
5612;SDS011;63463;53.586;9.928;2023-09-19T05:33:15;9.53;;;4.03;;
5612;SDS011;63463;53.586;9.928;2023-09-19T05:35:43;6.50;;;3.70;;
5612;SDS011;63463;53.586;9.928;2023-09-19T05:38:11;19.47;;;4.40;;
5612;SDS011;63463;53.586;9.928;2023-09-19T05:40:38;5.23;;;3.30;;
5612;SDS011;63463;53.586;9.928;2023-09-19T05:43:08;8.30;;;4.47;;
5612;SDS011;63463;53.586;9.928;2023-09-19T05:45:34;6.47;;;3.50;;
5612;SDS011;63463;53.586;9.928;2023-09-19T05:48:08;11.67;;;3.87;;
5612;SDS011;63463;53.586;9.928;2023-09-19T05:50:34;16.73;;;6.27;;
5612;SDS011;63463;53.586;9.928;2023-09-19T05:53:01;6.33;;;4.03;;
5612;SDS011;63463;53.586;9.928;2023-09-19T05:55:27;11.53;;;4.07;;
5612;SDS011;63463;53.586;9.928;2023-09-19T05:57:53;9.73;;;4.00;;
5612;SDS011;63463;53.586;9.928;2023-09-19T06:00:20;8.10;;;3.80;;
5612;SDS011;63463;53.586;9.928;2023-09-19T06:02:52;7.90;;;3.60;;
5612;SDS011;63463;53.586;9.928;2023-09-19T06:05:19;14.07;;;4.30;;
5612;SDS011;63463;53.586;9.928;2023-09-19T06:07:45;11.63;;;4.30;;
5612;SDS011;63463;53.586;9.928;2023-09-19T06:10:11;7.23;;;3.90;;
5612;SDS011;63463;53.586;9.928;2023-09-19T06:12:44;9.57;;;4.00;;
5612;SDS011;63463;53.586;9.928;2023-09-19T06:15:11;7.50;;;4.60;;
5612;SDS011;63463;53.586;9.928;2023-09-19T06:17:50;5.47;;;3.77;;
5612;SDS011;63463;53.586;9.928;2023-09-19T06:20:16;8.27;;;3.57;;
5612;SDS011;63463;53.586;9.928;2023-09-19T06:22:43;7.83;;;3.60;;
5612;SDS011;63463;53.586;9.928;2023-09-19T06:25:10;8.70;;;4.17;;
5612;SDS011;63463;53.586;9.928;2023-09-19T06:27:40;6.90;;;3.50;;
5612;SDS011;63463;53.586;9.928;2023-09-19T06:30:08;8.80;;;4.13;;
5612;SDS011;63463;53.586;9.928;2023-09-19T06:32:34;11.07;;;3.40;;
5612;SDS011;63463;53.586;9.928;2023-09-19T06:35:00;8.07;;;3.87;;
5612;SDS011;63463;53.586;9.928;2023-09-19T06:37:30;12.33;;;4.03;;
5612;SDS011;63463;53.586;9.928;2023-09-19T06:39:56;14.27;;;3.30;;
5612;SDS011;63463;53.586;9.928;2023-09-19T06:42:22;8.00;;;3.70;;
5612;SDS011;63463;53.586;9.928;2023-09-19T06:44:49;8.50;;;3.70;;
5612;SDS011;63463;53.586;9.928;2023-09-19T06:47:15;12.47;;;4.00;;
5612;SDS011;63463;53.586;9.928;2023-09-19T06:49:41;17.73;;;4.63;;
5612;SDS011;63463;53.586;9.928;2023-09-19T06:52:09;11.83;;;3.90;;
5612;SDS011;63463;53.586;9.928;2023-09-19T06:54:35;7.90;;;3.73;;
5612;SDS011;63463;53.586;9.928;2023-09-19T06:57:01;15.30;;;3.20;;
5612;SDS011;63463;53.586;9.928;2023-09-19T06:59:28;15.00;;;4.37;;
5612;SDS011;63463;53.586;9.928;2023-09-19T07:01:54;8.20;;;3.10;;
5612;SDS011;63463;53.586;9.928;2023-09-19T07:04:20;17.53;;;4.10;;
5612;SDS011;63463;53.586;9.928;2023-09-19T07:06:49;11.03;;;4.13;;
5612;SDS011;63463;53.586;9.928;2023-09-19T07:09:15;7.80;;;3.70;;
5612;SDS011;63463;53.586;9.928;2023-09-19T07:11:41;12.07;;;4.03;;
5612;SDS011;63463;53.586;9.928;2023-09-19T07:14:07;18.90;;;4.00;;
5612;SDS011;63463;53.586;9.928;2023-09-19T07:16:36;10.60;;;3.53;;
5612;SDS011;63463;53.586;9.928;2023-09-19T07:19:03;13.13;;;4.60;;
5612;SDS011;63463;53.586;9.928;2023-09-19T07:21:29;10.93;;;3.73;;
5612;SDS011;63463;53.586;9.928;2023-09-19T07:23:57;13.10;;;4.33;;
5612;SDS011;63463;53.586;9.928;2023-09-19T07:26:26;14.00;;;3.97;;
5612;SDS011;63463;53.586;9.928;2023-09-19T07:28:53;18.70;;;4.60;;
5612;SDS011;63463;53.586;9.928;2023-09-19T07:31:19;12.77;;;3.97;;
5612;SDS011;63463;53.586;9.928;2023-09-19T07:33:45;7.83;;;4.43;;
5612;SDS011;63463;53.586;9.928;2023-09-19T07:36:11;11.63;;;4.10;;
5612;SDS011;63463;53.586;9.928;2023-09-19T07:38:41;15.50;;;3.90;;
5612;SDS011;63463;53.586;9.928;2023-09-19T07:41:07;15.80;;;4.80;;
5612;SDS011;63463;53.586;9.928;2023-09-19T07:43:36;8.20;;;4.03;;
5612;SDS011;63463;53.586;9.928;2023-09-19T07:46:05;11.53;;;4.30;;
5612;SDS011;63463;53.586;9.928;2023-09-19T07:48:32;12.37;;;4.00;;
5612;SDS011;63463;53.586;9.928;2023-09-19T07:51:05;17.03;;;4.30;;
5612;SDS011;63463;53.586;9.928;2023-09-19T07:53:32;16.17;;;4.87;;
5612;SDS011;63463;53.586;9.928;2023-09-19T07:56:05;10.13;;;4.83;;
5612;SDS011;63463;53.586;9.928;2023-09-19T07:58:31;20.63;;;4.73;;
5612;SDS011;63463;53.586;9.928;2023-09-19T08:01:07;18.03;;;5.17;;
5612;SDS011;63463;53.586;9.928;2023-09-19T08:03:34;21.00;;;5.47;;
5612;SDS011;63463;53.586;9.928;2023-09-19T08:06:02;17.50;;;5.50;;
5612;SDS011;63463;53.586;9.928;2023-09-19T08:08:29;25.00;;;6.50;;
5612;SDS011;63463;53.586;9.928;2023-09-19T08:10:56;16.50;;;5.20;;
5612;SDS011;63463;53.586;9.928;2023-09-19T08:13:25;18.97;;;6.73;;
5612;SDS011;63463;53.586;9.928;2023-09-19T08:15:52;23.50;;;6.83;;
5612;SDS011;63463;53.586;9.928;2023-09-19T08:18:18;17.93;;;6.10;;
5612;SDS011;63463;53.586;9.928;2023-09-19T08:20:52;12.57;;;6.37;;
5612;SDS011;63463;53.586;9.928;2023-09-19T08:23:18;23.13;;;6.20;;
5612;SDS011;63463;53.586;9.928;2023-09-19T08:25:46;14.53;;;5.87;;
5612;SDS011;63463;53.586;9.928;2023-09-19T08:28:12;15.93;;;6.17;;
5612;SDS011;63463;53.586;9.928;2023-09-19T08:30:43;20.13;;;6.53;;
5612;SDS011;63463;53.586;9.928;2023-09-19T08:33:10;13.43;;;5.90;;
5612;SDS011;63463;53.586;9.928;2023-09-19T08:35:36;16.93;;;5.50;;
5612;SDS011;63463;53.586;9.928;2023-09-19T08:38:04;16.27;;;5.17;;
5612;SDS011;63463;53.586;9.928;2023-09-19T08:40:31;15.10;;;5.30;;
5612;SDS011;63463;53.586;9.928;2023-09-19T08:42:59;19.53;;;5.83;;
5612;SDS011;63463;53.586;9.928;2023-09-19T08:45:26;11.27;;;4.83;;
5612;SDS011;63463;53.586;9.928;2023-09-19T08:48:11;29.40;;;6.07;;
5612;SDS011;63463;53.586;9.928;2023-09-19T08:53:16;14.87;;;5.30;;
5612;SDS011;63463;53.586;9.928;2023-09-19T08:55:45;22.17;;;5.53;;
5612;SDS011;63463;53.586;9.928;2023-09-19T08:58:13;13.63;;;4.10;;
5612;SDS011;63463;53.586;9.928;2023-09-19T09:00:44;9.80;;;4.27;;
5612;SDS011;63463;53.586;9.928;2023-09-19T09:03:12;15.40;;;4.30;;
5612;SDS011;63463;53.586;9.928;2023-09-19T09:05:41;14.40;;;4.63;;
5612;SDS011;63463;53.586;9.928;2023-09-19T09:08:11;33.93;;;14.57;;
5612;SDS011;63463;53.586;9.928;2023-09-19T09:10:37;9.23;;;4.30;;
5612;SDS011;63463;53.586;9.928;2023-09-19T09:13:05;18.03;;;5.43;;
5612;SDS011;63463;53.586;9.928;2023-09-19T09:15:31;16.17;;;5.80;;
5612;SDS011;63463;53.586;9.928;2023-09-19T09:18:01;20.60;;;4.67;;
5612;SDS011;63463;53.586;9.928;2023-09-19T09:20:28;13.40;;;4.60;;
5612;SDS011;63463;53.586;9.928;2023-09-19T09:22:54;15.90;;;5.03;;
5612;SDS011;63463;53.586;9.928;2023-09-19T09:25:24;12.00;;;4.10;;
5612;SDS011;63463;53.586;9.928;2023-09-19T09:28:10;16.83;;;5.13;;
5612;SDS011;63463;53.586;9.928;2023-09-19T09:30:37;20.67;;;4.80;;
5612;SDS011;63463;53.586;9.928;2023-09-19T09:33:13;10.17;;;4.50;;
5612;SDS011;63463;53.586;9.928;2023-09-19T09:36:13;10.40;;;4.10;;
5612;SDS011;63463;53.586;9.928;2023-09-19T09:38:43;18.20;;;4.60;;
5612;SDS011;63463;53.586;9.928;2023-09-19T09:41:10;10.73;;;3.77;;
5612;SDS011;63463;53.586;9.928;2023-09-19T09:43:40;16.73;;;3.70;;
5612;SDS011;63463;53.586;9.928;2023-09-19T09:46:14;8.73;;;3.50;;
5612;SDS011;63463;53.586;9.928;2023-09-19T09:48:47;14.43;;;3.83;;
5612;SDS011;63463;53.586;9.928;2023-09-19T09:51:36;18.10;;;3.70;;
5612;SDS011;63463;53.586;9.928;2023-09-19T09:54:13;15.80;;;3.47;;
5612;SDS011;63463;53.586;9.928;2023-09-19T09:56:59;11.90;;;4.17;;
5612;SDS011;63463;53.586;9.928;2023-09-19T09:59:45;10.97;;;3.37;;
5612;SDS011;63463;53.586;9.928;2023-09-19T10:02:15;18.93;;;3.77;;
5612;SDS011;63463;53.586;9.928;2023-09-19T10:04:47;12.83;;;3.43;;
5612;SDS011;63463;53.586;9.928;2023-09-19T10:07:26;9.30;;;3.33;;
5612;SDS011;63463;53.586;9.928;2023-09-19T10:09:57;11.40;;;2.80;;
5612;SDS011;63463;53.586;9.928;2023-09-19T10:12:30;7.17;;;2.80;;
5612;SDS011;63463;53.586;9.928;2023-09-19T10:14:57;10.63;;;3.53;;
5612;SDS011;63463;53.586;9.928;2023-09-19T10:17:24;14.00;;;3.30;;
5612;SDS011;63463;53.586;9.928;2023-09-19T10:19:55;11.30;;;3.53;;
5612;SDS011;63463;53.586;9.928;2023-09-19T10:22:30;11.30;;;3.30;;
5612;SDS011;63463;53.586;9.928;2023-09-19T10:24:57;16.60;;;2.90;;
5612;SDS011;63463;53.586;9.928;2023-09-19T10:27:27;8.70;;;2.80;;
5612;SDS011;63463;53.586;9.928;2023-09-19T10:29:54;7.53;;;2.67;;
5612;SDS011;63463;53.586;9.928;2023-09-19T10:32:22;9.20;;;3.10;;
5612;SDS011;63463;53.586;9.928;2023-09-19T10:34:49;11.20;;;3.63;;
5612;SDS011;63463;53.586;9.928;2023-09-19T10:37:18;5.43;;;2.80;;
5612;SDS011;63463;53.586;9.928;2023-09-19T10:39:46;7.30;;;2.73;;
5612;SDS011;63463;53.586;9.928;2023-09-19T10:42:14;4.93;;;2.67;;
5612;SDS011;63463;53.586;9.928;2023-09-19T10:44:42;8.53;;;2.60;;
5612;SDS011;63463;53.586;9.928;2023-09-19T10:47:09;7.60;;;3.10;;
5612;SDS011;63463;53.586;9.928;2023-09-19T10:49:35;12.23;;;3.03;;
5612;SDS011;63463;53.586;9.928;2023-09-19T10:52:01;8.83;;;3.10;;
5612;SDS011;63463;53.586;9.928;2023-09-19T10:54:29;12.63;;;3.37;;
5612;SDS011;63463;53.586;9.928;2023-09-19T10:56:59;12.80;;;2.73;;
5612;SDS011;63463;53.586;9.928;2023-09-19T10:59:25;8.53;;;3.43;;
5612;SDS011;63463;53.586;9.928;2023-09-19T11:02:00;5.77;;;3.10;;
5612;SDS011;63463;53.586;9.928;2023-09-19T11:04:42;9.00;;;3.10;;
5612;SDS011;63463;53.586;9.928;2023-09-19T11:07:11;12.17;;;2.87;;
5612;SDS011;63463;53.586;9.928;2023-09-19T11:12:11;7.33;;;2.63;;
5612;SDS011;63463;53.586;9.928;2023-09-19T11:14:37;5.37;;;2.67;;
5612;SDS011;63463;53.586;9.928;2023-09-19T11:22:26;7.63;;;2.70;;
5612;SDS011;63463;53.586;9.928;2023-09-19T11:30:44;7.70;;;2.73;;
5612;SDS011;63463;53.586;9.928;2023-09-19T11:33:28;6.13;;;2.80;;
5612;SDS011;63463;53.586;9.928;2023-09-19T11:44:38;12.20;;;3.23;;
5612;SDS011;63463;53.586;9.928;2023-09-19T11:49:18;11.30;;;3.03;;
5612;SDS011;63463;53.586;9.928;2023-09-19T11:51:48;4.60;;;2.50;;
5612;SDS011;63463;53.586;9.928;2023-09-19T11:54:16;6.23;;;3.03;;
5612;SDS011;63463;53.586;9.928;2023-09-19T11:56:53;8.77;;;2.73;;
5612;SDS011;63463;53.586;9.928;2023-09-19T11:59:20;5.80;;;2.77;;
5612;SDS011;63463;53.586;9.928;2023-09-19T12:01:50;7.40;;;2.93;;
5612;SDS011;63463;53.586;9.928;2023-09-19T12:04:22;8.53;;;2.60;;
5612;SDS011;63463;53.586;9.928;2023-09-19T12:06:58;5.33;;;2.37;;
5612;SDS011;63463;53.586;9.928;2023-09-19T12:09:24;6.93;;;3.10;;
5612;SDS011;63463;53.586;9.928;2023-09-19T12:11:50;6.87;;;2.87;;
5612;SDS011;63463;53.586;9.928;2023-09-19T12:14:23;12.40;;;3.23;;
5612;SDS011;63463;53.586;9.928;2023-09-19T12:16:54;13.00;;;3.30;;
5612;SDS011;63463;53.586;9.928;2023-09-19T12:19:21;13.90;;;3.00;;
5612;SDS011;63463;53.586;9.928;2023-09-19T12:21:58;11.83;;;3.20;;
5612;SDS011;63463;53.586;9.928;2023-09-19T12:24:28;9.17;;;3.27;;
5612;SDS011;63463;53.586;9.928;2023-09-19T12:26:59;9.70;;;3.80;;
5612;SDS011;63463;53.586;9.928;2023-09-19T12:29:29;9.37;;;3.20;;
5612;SDS011;63463;53.586;9.928;2023-09-19T12:31:59;7.93;;;2.80;;
5612;SDS011;63463;53.586;9.928;2023-09-19T12:34:32;16.63;;;3.00;;
5612;SDS011;63463;53.586;9.928;2023-09-19T12:37:11;9.07;;;2.97;;
5612;SDS011;63463;53.586;9.928;2023-09-19T12:39:44;7.77;;;2.77;;
5612;SDS011;63463;53.586;9.928;2023-09-19T12:42:23;18.00;;;3.00;;
5612;SDS011;63463;53.586;9.928;2023-09-19T12:44:50;9.47;;;2.80;;
5612;SDS011;63463;53.586;9.928;2023-09-19T12:47:20;13.47;;;3.50;;
5612;SDS011;63463;53.586;9.928;2023-09-19T12:52:38;11.57;;;3.43;;
5612;SDS011;63463;53.586;9.928;2023-09-19T12:55:04;7.73;;;3.30;;
5612;SDS011;63463;53.586;9.928;2023-09-19T12:57:32;6.60;;;2.80;;
5612;SDS011;63463;53.586;9.928;2023-09-19T13:00:02;15.23;;;3.60;;
5612;SDS011;63463;53.586;9.928;2023-09-19T13:02:30;5.40;;;2.67;;
5612;SDS011;63463;53.586;9.928;2023-09-19T13:04:57;21.00;;;3.30;;
5612;SDS011;63463;53.586;9.928;2023-09-19T13:07:41;14.93;;;3.80;;
5612;SDS011;63463;53.586;9.928;2023-09-19T13:10:14;14.70;;;3.07;;
5612;SDS011;63463;53.586;9.928;2023-09-19T13:12:41;9.43;;;3.43;;
5612;SDS011;63463;53.586;9.928;2023-09-19T13:15:12;14.23;;;3.23;;
5612;SDS011;63463;53.586;9.928;2023-09-19T13:17:44;10.60;;;3.37;;
5612;SDS011;63463;53.586;9.928;2023-09-19T13:22:52;12.53;;;3.60;;
5612;SDS011;63463;53.586;9.928;2023-09-19T13:25:25;10.20;;;3.10;;
5612;SDS011;63463;53.586;9.928;2023-09-19T13:27:55;10.13;;;2.77;;
5612;SDS011;63463;53.586;9.928;2023-09-19T13:30:22;4.10;;;2.57;;
5612;SDS011;63463;53.586;9.928;2023-09-19T13:33:04;13.00;;;2.90;;
5612;SDS011;63463;53.586;9.928;2023-09-19T13:35:31;7.17;;;3.53;;
5612;SDS011;63463;53.586;9.928;2023-09-19T13:37:57;15.47;;;2.90;;
5612;SDS011;63463;53.586;9.928;2023-09-19T13:40:24;10.10;;;3.00;;
5612;SDS011;63463;53.586;9.928;2023-09-19T13:42:55;8.50;;;3.00;;
5612;SDS011;63463;53.586;9.928;2023-09-19T13:45:21;18.33;;;3.20;;
5612;SDS011;63463;53.586;9.928;2023-09-19T13:47:52;16.10;;;3.17;;
5612;SDS011;63463;53.586;9.928;2023-09-19T13:50:18;11.93;;;3.00;;
5612;SDS011;63463;53.586;9.928;2023-09-19T13:52:49;7.27;;;3.00;;
5612;SDS011;63463;53.586;9.928;2023-09-19T13:55:16;15.43;;;3.10;;
5612;SDS011;63463;53.586;9.928;2023-09-19T13:57:45;9.87;;;2.77;;
5612;SDS011;63463;53.586;9.928;2023-09-19T14:00:12;4.70;;;2.70;;
5612;SDS011;63463;53.586;9.928;2023-09-19T14:02:41;16.73;;;2.93;;
5612;SDS011;63463;53.586;9.928;2023-09-19T14:05:09;9.30;;;2.37;;
5612;SDS011;63463;53.586;9.928;2023-09-19T14:07:37;5.20;;;2.60;;
5612;SDS011;63463;53.586;9.928;2023-09-19T14:10:03;6.10;;;3.47;;
5612;SDS011;63463;53.586;9.928;2023-09-19T14:12:33;10.90;;;3.03;;
5612;SDS011;63463;53.586;9.928;2023-09-19T14:14:59;5.10;;;2.80;;
5612;SDS011;63463;53.586;9.928;2023-09-19T14:17:26;7.70;;;2.73;;
5612;SDS011;63463;53.586;9.928;2023-09-19T14:19:53;11.20;;;3.37;;
5612;SDS011;63463;53.586;9.928;2023-09-19T14:22:19;20.43;;;3.87;;
5612;SDS011;63463;53.586;9.928;2023-09-19T14:24:45;14.03;;;2.77;;
5612;SDS011;63463;53.586;9.928;2023-09-19T14:27:11;5.10;;;2.77;;
5612;SDS011;63463;53.586;9.928;2023-09-19T14:29:37;8.27;;;3.00;;
5612;SDS011;63463;53.586;9.928;2023-09-19T14:32:04;11.70;;;3.70;;
5612;SDS011;63463;53.586;9.928;2023-09-19T14:34:30;5.50;;;2.73;;
5612;SDS011;63463;53.586;9.928;2023-09-19T14:36:56;12.50;;;2.80;;
5612;SDS011;63463;53.586;9.928;2023-09-19T14:39:22;12.10;;;3.10;;
5612;SDS011;63463;53.586;9.928;2023-09-19T14:41:48;14.17;;;3.20;;
5612;SDS011;63463;53.586;9.928;2023-09-19T14:44:15;12.30;;;2.60;;
5612;SDS011;63463;53.586;9.928;2023-09-19T14:46:41;7.67;;;2.90;;
5612;SDS011;63463;53.586;9.928;2023-09-19T14:49:09;12.00;;;3.23;;
5612;SDS011;63463;53.586;9.928;2023-09-19T14:51:35;10.20;;;3.40;;
5612;SDS011;63463;53.586;9.928;2023-09-19T14:54:02;11.60;;;2.50;;
5612;SDS011;63463;53.586;9.928;2023-09-19T14:56:28;7.27;;;2.97;;
5612;SDS011;63463;53.586;9.928;2023-09-19T14:58:56;17.30;;;3.87;;
5612;SDS011;63463;53.586;9.928;2023-09-19T15:01:22;16.53;;;2.90;;
5612;SDS011;63463;53.586;9.928;2023-09-19T15:03:48;16.30;;;3.73;;
5612;SDS011;63463;53.586;9.928;2023-09-19T15:06:14;7.40;;;2.60;;
5612;SDS011;63463;53.586;9.928;2023-09-19T15:08:44;7.13;;;2.67;;
5612;SDS011;63463;53.586;9.928;2023-09-19T15:11:16;11.00;;;3.23;;
5612;SDS011;63463;53.586;9.928;2023-09-19T15:13:43;10.70;;;2.90;;
5612;SDS011;63463;53.586;9.928;2023-09-19T15:16:09;9.77;;;3.00;;
5612;SDS011;63463;53.586;9.928;2023-09-19T15:18:40;13.50;;;3.40;;
5612;SDS011;63463;53.586;9.928;2023-09-19T15:21:07;11.00;;;2.90;;
5612;SDS011;63463;53.586;9.928;2023-09-19T15:23:34;8.47;;;2.97;;
5612;SDS011;63463;53.586;9.928;2023-09-19T15:26:01;7.90;;;3.20;;
5612;SDS011;63463;53.586;9.928;2023-09-19T15:28:28;17.03;;;3.17;;
5612;SDS011;63463;53.586;9.928;2023-09-19T15:31:01;10.53;;;3.60;;
5612;SDS011;63463;53.586;9.928;2023-09-19T15:33:28;9.53;;;3.20;;
5612;SDS011;63463;53.586;9.928;2023-09-19T15:36:06;7.97;;;2.70;;
5612;SDS011;63463;53.586;9.928;2023-09-19T15:38:50;15.63;;;3.60;;
5612;SDS011;63463;53.586;9.928;2023-09-19T15:41:18;7.37;;;2.97;;
5612;SDS011;63463;53.586;9.928;2023-09-19T15:43:45;7.03;;;3.23;;
5612;SDS011;63463;53.586;9.928;2023-09-19T15:46:12;14.50;;;3.23;;
5612;SDS011;63463;53.586;9.928;2023-09-19T15:48:47;16.43;;;3.63;;
5612;SDS011;63463;53.586;9.928;2023-09-19T15:51:13;9.77;;;3.43;;
5612;SDS011;63463;53.586;9.928;2023-09-19T15:53:45;8.70;;;3.13;;